Time;durP1;ratioP1;P1;durP2;ratioP2;P2;SDS_P1;SDS_P2;PMS_P1;PMS_P2;Temp;Humidity;BMP_temperature;BMP_pressure;BME280_temperature;BME280_humidity;BME280_pressure;Samples;Min_cycle;Max_cycle;Signal;HPM_P1;HPM_P2
2024/03/11 00:00:58;;;;;;;49.45;24.08;;;;;;;10.76;100.00;99807.13;5250303;28;20027;-75
2024/03/11 00:03:28;;;;;;;45.45;24.10;;;;;;;10.73;100.00;99800.28;5254426;28;20024;-75
2024/03/11 00:06:01;;;;;;;54.30;24.50;;;;;;;10.74;100.00;99814.53;5248861;28;20017;-75
2024/03/11 00:08:31;;;;;;;46.72;24.23;;;;;;;10.73;100.00;99812.88;5252815;28;20035;-75
2024/03/11 00:11:04;;;;;;;53.88;26.17;;;;;;;10.69;100.00;99815.09;5253208;28;20033;-75
2024/03/11 00:13:37;;;;;;;54.47;25.73;;;;;;;10.69;100.00;99806.22;5251823;28;20024;-75
2024/03/11 00:16:07;;;;;;;52.08;24.80;;;;;;;10.67;100.00;99802.94;5252878;28;20028;-75
2024/03/11 00:18:40;;;;;;;53.90;25.70;;;;;;;10.63;100.00;99808.66;5247295;28;20039;-75
2024/03/11 00:21:11;;;;;;;56.80;26.55;;;;;;;10.62;100.00;99807.00;5254473;28;20050;-75
2024/03/11 00:23:43;;;;;;;59.53;27.30;;;;;;;10.60;100.00;99809.06;5251919;28;20436;-76
2024/03/11 00:26:13;;;;;;;61.58;28.88;;;;;;;10.58;100.00;99803.03;5253752;28;20086;-76
2024/03/11 00:28:44;;;;;;;62.38;29.17;;;;;;;10.58;100.00;99805.72;5249451;28;20036;-76
2024/03/11 00:31:15;;;;;;;62.08;29.30;;;;;;;10.56;100.00;99809.63;5251690;28;20028;-76
2024/03/11 00:33:45;;;;;;;61.53;29.58;;;;;;;10.50;100.00;99808.56;5250841;28;20402;-76
2024/03/11 00:36:17;;;;;;;60.65;29.50;;;;;;;10.49;100.00;99806.91;5257206;28;20649;-76
2024/03/11 00:38:47;;;;;;;60.58;30.17;;;;;;;10.47;100.00;99803.56;5247679;28;20542;-74
2024/03/11 00:41:18;;;;;;;64.05;29.77;;;;;;;10.47;100.00;99811.59;5256302;28;20103;-76
2024/03/11 00:43:49;;;;;;;66.00;29.52;;;;;;;10.40;100.00;99805.34;5247659;28;20097;-76
2024/03/11 00:46:20;;;;;;;63.17;29.15;;;;;;;10.40;100.00;99802.69;5253147;28;20028;-76
2024/03/11 00:48:51;;;;;;;64.47;29.30;;;;;;;10.41;100.00;99801.66;5251011;28;20032;-76
2024/03/11 00:51:21;;;;;;;61.63;29.30;;;;;;;10.43;100.00;99807.63;5251411;28;20024;-75
2024/03/11 00:53:52;;;;;;;69.13;32.80;;;;;;;10.44;100.00;99800.41;5248480;28;20024;-75
2024/03/11 00:56:22;;;;;;;69.80;32.88;;;;;;;10.42;100.00;99805.16;5253059;28;20054;-74
2024/03/11 00:58:53;;;;;;;68.95;31.73;;;;;;;10.38;100.00;99802.84;5249924;28;20111;-75
2024/03/11 01:01:25;;;;;;;72.32;32.22;;;;;;;10.41;100.00;99809.69;5253466;28;20031;-75
2024/03/11 01:03:58;;;;;;;69.90;31.83;;;;;;;10.40;100.00;99802.69;5249859;28;20070;-75
2024/03/11 01:06:29;;;;;;;71.93;31.83;;;;;;;10.41;100.00;99804.31;5251307;28;20035;-75
2024/03/11 01:08:59;;;;;;;68.75;33.33;;;;;;;10.38;100.00;99805.53;5248506;28;20016;-74
2024/03/11 01:11:30;;;;;;;68.38;32.38;;;;;;;10.43;100.00;99812.16;5251881;28;20102;-76
2024/03/11 01:14:00;;;;;;;69.53;33.35;;;;;;;10.42;100.00;99805.16;5249513;28;20033;-75
2024/03/11 01:16:32;;;;;;;78.38;35.83;;;;;;;10.43;100.00;99809.50;5252244;28;20017;-75
2024/03/11 01:19:06;;;;;;;72.47;33.63;;;;;;;10.41;100.00;99819.59;5246840;28;20032;-76
2024/03/11 01:21:36;;;;;;;66.88;33.05;;;;;;;10.42;100.00;99810.50;5250167;28;20032;-76
2024/03/11 01:24:10;;;;;;;70.15;31.63;;;;;;;10.43;100.00;99815.69;5256423;28;20028;-76
2024/03/11 01:26:41;;;;;;;71.50;35.47;;;;;;;10.45;100.00;99810.97;5248587;28;20024;-76
2024/03/11 01:29:11;;;;;;;77.90;34.65;;;;;;;10.43;100.00;99813.00;5251630;28;20035;-76
2024/03/11 01:31:43;;;;;;;77.25;36.22;;;;;;;10.42;100.00;99814.03;5249424;28;20482;-76
2024/03/11 01:34:13;;;;;;;68.60;34.53;;;;;;;10.41;100.00;99812.38;5264915;28;20043;-75
2024/03/11 01:36:44;;;;;;;79.55;38.05;;;;;;;10.40;100.00;99818.75;5244021;28;20504;-75
2024/03/11 01:39:25;;;;;;;71.95;34.50;;;;;;;10.42;100.00;99811.34;5249003;28;20050;-75
2024/03/11 01:41:55;;;;;;;78.60;35.72;;;;;;;10.43;100.00;99818.38;5247918;28;20050;-75
2024/03/11 01:44:28;;;;;;;69.75;34.35;;;;;;;10.43;100.00;99814.84;5247340;28;20024;-75
2024/03/11 01:46:58;;;;;;;82.88;39.08;;;;;;;10.43;100.00;99812.16;5249983;28;20119;-75
2024/03/11 01:49:31;;;;;;;81.93;36.47;;;;;;;10.43;100.00;99810.31;5250435;28;20098;-75
2024/03/11 01:52:03;;;;;;;86.03;39.78;;;;;;;10.43;100.00;99807.63;5247496;28;20111;-75
2024/03/11 01:54:36;;;;;;;82.65;36.78;;;;;;;10.40;100.00;99813.41;5233970;28;20021;-75
2024/03/11 01:57:10;;;;;;;79.43;38.55;;;;;;;10.40;100.00;99808.03;5253386;28;20036;-75
2024/03/11 01:59:41;;;;;;;83.53;40.20;;;;;;;10.38;100.00;99810.06;5246899;28;20028;-75
2024/03/11 02:02:12;;;;;;;77.55;37.92;;;;;;;10.40;100.00;99810.72;5254439;28;20477;-75
2024/03/11 02:04:44;;;;;;;82.75;38.30;;;;;;;10.41;100.00;99804.31;5247141;28;20078;-75
2024/03/11 02:07:15;;;;;;;83.70;40.55;;;;;;;10.41;100.00;99811.53;5254885;28;20108;-74
2024/03/11 02:09:45;;;;;;;84.65;40.67;;;;;;;10.40;100.00;99812.56;5243911;28;20111;-75
2024/03/11 02:12:18;;;;;;;84.63;39.70;;;;;;;10.38;100.00;99810.88;5253410;28;20032;-75
2024/03/11 02:14:48;;;;;;;91.32;43.20;;;;;;;10.40;100.00;99816.06;5250331;28;20131;-75
2024/03/11 02:17:19;;;;;;;92.68;43.30;;;;;;;10.38;100.00;99810.06;5250962;28;20028;-75
2024/03/11 02:19:49;;;;;;;95.55;43.65;;;;;;;10.35;100.00;99803.25;5249285;28;21162;-75
2024/03/11 02:22:20;;;;;;;84.95;40.38;;;;;;;10.38;100.00;99812.75;5253426;28;20497;-75
2024/03/11 02:24:51;;;;;;;91.82;43.58;;;;;;;10.34;100.00;99812.31;5250727;28;20024;-76
2024/03/11 02:27:22;;;;;;;97.43;45.30;;;;;;;10.32;100.00;99814.34;5251259;28;20035;-76
2024/03/11 02:29:52;;;;;;;91.80;42.88;;;;;;;10.30;100.00;99815.56;5250883;28;20482;-74
2024/03/11 02:32:23;;;;;;;90.25;43.35;;;;;;;10.32;100.00;99818.88;5255019;28;20034;-75
2024/03/11 02:34:53;;;;;;;103.20;45.22;;;;;;;10.28;100.00;99810.38;5254410;28;20032;-75
2024/03/11 02:37:24;;;;;;;99.60;45.95;;;;;;;10.29;100.00;99809.38;5257129;28;20494;-75
2024/03/11 02:39:55;;;;;;;98.78;43.85;;;;;;;10.27;100.00;99814.06;5250133;28;20547;-75
2024/03/11 02:42:25;;;;;;;97.35;45.20;;;;;;;10.28;100.00;99814.91;5256684;28;20661;-75
2024/03/11 02:44:57;;;;;;;100.13;44.70;;;;;;;10.28;100.00;99820.25;5251410;28;20416;-75
2024/03/11 02:47:27;;;;;;;103.68;48.20;;;;;;;10.30;100.00;99815.56;5254732;28;20027;-75
2024/03/11 02:49:59;;;;;;;108.47;49.17;;;;;;;10.31;100.00;99817.22;5252181;28;20051;-75
2024/03/11 02:52:29;;;;;;;101.53;46.22;;;;;;;10.31;100.00;99820.72;5253899;28;20424;-75
2024/03/11 02:55:01;;;;;;;103.47;48.60;;;;;;;10.30;100.00;99827.09;5255067;28;20016;-75
2024/03/11 02:57:33;;;;;;;108.38;48.33;;;;;;;10.29;100.00;99827.28;5257070;28;20035;-75
2024/03/11 03:00:10;;;;;;;102.45;49.67;;;;;;;10.27;100.00;99823.97;5253661;28;20025;-75
2024/03/11 03:02:42;;;;;;;113.53;51.28;;;;;;;10.29;100.00;99827.28;5237599;28;20040;-75
2024/03/11 03:05:12;;;;;;;106.85;48.28;;;;;;;10.29;100.00;99829.97;5252763;28;20071;-75
2024/03/11 03:07:43;;;;;;;118.63;53.85;;;;;;;10.29;100.00;99829.97;5253716;28;20024;-75
2024/03/11 03:10:14;;;;;;;105.80;50.47;;;;;;;10.30;100.00;99828.97;5252013;28;20020;-75
2024/03/11 03:12:45;;;;;;;108.32;51.00;;;;;;;10.32;100.00;99827.72;5247660;28;20071;-75
2024/03/11 03:15:16;;;;;;;117.85;52.70;;;;;;;10.33;100.00;99825.88;5256403;28;20393;-75
2024/03/11 03:17:48;;;;;;;114.90;51.75;;;;;;;10.33;100.00;99828.56;5250256;28;20016;-75
2024/03/11 03:20:19;;;;;;;114.03;51.88;;;;;;;10.36;100.00;99833.56;5255060;28;20016;-75
2024/03/11 03:22:50;;;;;;;116.45;51.22;;;;;;;10.36;100.00;99822.84;5249458;28;20466;-74
2024/03/11 03:25:20;;;;;;;110.57;49.92;;;;;;;10.36;100.00;99826.34;5254298;28;20040;-76
2024/03/11 03:27:56;;;;;;;115.50;51.92;;;;;;;10.38;100.00;99828.81;5254843;28;20027;-75
2024/03/11 03:30:26;;;;;;;110.75;50.00;;;;;;;10.39;100.00;99830.47;5249916;28;20028;-75
2024/03/11 03:32:58;;;;;;;118.68;53.72;;;;;;;10.37;100.00;99835.22;5254959;28;20031;-75
2024/03/11 03:35:28;;;;;;;117.38;52.92;;;;;;;10.36;100.00;99828.19;5235996;28;20902;-75
2024/03/11 03:37:59;;;;;;;120.43;54.55;;;;;;;10.36;100.00;99830.88;5253534;28;20046;-75
2024/03/11 03:40:30;;;;;;;117.63;52.72;;;;;;;10.36;100.00;99831.72;5261617;28;20024;-75
2024/03/11 03:43:03;;;;;;;114.78;51.03;;;;;;;10.40;100.00;99834.84;5250771;28;20086;-75
2024/03/11 03:45:34;;;;;;;108.32;49.55;;;;;;;10.37;100.00;99836.03;5253702;28;20039;-76
2024/03/11 03:48:04;;;;;;;108.78;49.25;;;;;;;10.38;100.00;99839.56;5251809;28;20020;-75
2024/03/11 03:50:35;;;;;;;111.82;50.28;;;;;;;10.40;100.00;99842.06;5253481;28;20020;-75
2024/03/11 03:53:05;;;;;;;105.85;46.92;;;;;;;10.37;100.00;99841.41;5252077;28;20017;-75
2024/03/11 03:55:37;;;;;;;105.55;47.28;;;;;;;10.41;100.00;99839.19;5251064;28;20549;-75
2024/03/11 03:58:07;;;;;;;102.97;46.05;;;;;;;10.39;100.00;99841.19;5256248;28;20059;-75
2024/03/11 04:00:39;;;;;;;96.63;44.90;;;;;;;10.41;100.00;99844.53;5248690;28;20120;-76
2024/03/11 04:03:09;;;;;;;100.07;46.20;;;;;;;10.44;100.00;99838.81;5253447;28;20024;-76
2024/03/11 04:05:40;;;;;;;108.18;46.88;;;;;;;10.43;100.00;99845.19;5249900;28;20055;-76
2024/03/11 04:08:10;;;;;;;98.90;44.08;;;;;;;10.43;100.00;99845.19;5253984;28;20024;-75
2024/03/11 04:10:41;;;;;;;86.82;42.10;;;;;;;10.46;100.00;99843.97;5252317;28;20028;-75
2024/03/11 04:13:12;;;;;;;89.65;40.17;;;;;;;10.47;100.00;99846.47;5253173;28;20028;-76
2024/03/11 04:15:43;;;;;;;84.50;38.20;;;;;;;10.45;100.00;99839.66;5252315;28;20016;-75
2024/03/11 04:18:14;;;;;;;82.22;40.25;;;;;;;10.44;100.00;99841.50;5256798;28;20016;-75
2024/03/11 04:20:45;;;;;;;82.25;37.92;;;;;;;10.44;100.00;99844.19;5247397;28;20043;-76
2024/03/11 04:23:15;;;;;;;78.03;35.38;;;;;;;10.45;100.00;99831.59;5256476;28;20020;-75
2024/03/11 04:25:49;;;;;;;76.70;34.22;;;;;;;10.45;100.00;99840.47;5249306;28;20035;-75
2024/03/11 04:28:19;;;;;;;57.70;29.75;;;;;;;10.46;100.00;99846.66;5246140;28;20024;-75
2024/03/11 04:30:50;;;;;;;59.15;28.00;;;;;;;10.46;100.00;99835.94;5260691;28;20435;-75
2024/03/11 04:33:22;;;;;;;50.85;26.33;;;;;;;10.42;100.00;99842.69;5252592;28;20039;-74
2024/03/11 04:35:53;;;;;;;48.72;23.92;;;;;;;10.39;100.00;99843.88;5252462;28;20017;-75
2024/03/11 04:38:24;;;;;;;47.95;23.17;;;;;;;10.40;100.00;99848.25;5250627;28;20497;-76
2024/03/11 04:40:54;;;;;;;51.55;23.98;;;;;;;10.37;100.00;99840.56;5252224;28;20073;-75
2024/03/11 04:43:25;;;;;;;45.42;22.95;;;;;;;10.36;100.00;99838.91;5253530;28;20386;-75
2024/03/11 04:45:55;;;;;;;42.55;22.00;;;;;;;10.38;100.00;99842.22;5253119;28;20020;-75
2024/03/11 04:48:26;;;;;;;43.85;21.00;;;;;;;10.34;100.00;99838.25;5248313;28;20020;-75
2024/03/11 04:50:58;;;;;;;39.08;19.52;;;;;;;10.33;100.00;99833.94;5250977;28;20031;-75
2024/03/11 04:53:29;;;;;;;39.90;19.55;;;;;;;10.31;100.00;99838.66;5251044;28;20304;-75
2024/03/11 04:56:01;;;;;;;50.47;26.20;;;;;;;10.27;100.00;99840.06;5250883;28;20012;-74
2024/03/11 04:58:32;;;;;;;47.28;22.60;;;;;;;10.22;100.00;99843.25;5255402;28;20046;-75
2024/03/11 05:01:05;;;;;;;35.13;19.08;;;;;;;10.12;100.00;99842.72;5249255;28;20021;-75
2024/03/11 05:03:35;;;;;;;23.95;13.43;;;;;;;10.04;100.00;99854.41;5253189;28;20030;-75
2024/03/11 05:06:06;;;;;;;20.98;10.90;;;;;;;10.02;100.00;99858.25;5246626;28;20462;-75
2024/03/11 05:08:37;;;;;;;21.55;11.30;;;;;;;9.95;100.00;99865.41;5250802;28;20031;-74
2024/03/11 05:11:07;;;;;;;18.20;9.85;;;;;;;9.99;100.00;99872.03;5266682;28;20504;-75
2024/03/11 05:13:38;;;;;;;20.05;9.35;;;;;;;9.97;100.00;99868.72;5245849;28;20028;-75
2024/03/11 05:16:09;;;;;;;17.65;8.68;;;;;;;9.97;100.00;99864.19;5254372;28;20039;-75
2024/03/11 05:18:40;;;;;;;23.75;11.05;;;;;;;9.95;100.00;99862.72;5241452;28;20020;-75
2024/03/11 05:21:11;;;;;;;20.73;9.80;;;;;;;9.96;100.00;99853.66;5242286;28;20508;-75
2024/03/11 05:23:41;;;;;;;24.13;11.15;;;;;;;9.87;100.00;99866.31;5248738;28;20096;-75
2024/03/11 05:26:12;;;;;;;23.67;11.23;;;;;;;9.90;100.00;99865.13;5251686;28;20045;-74
2024/03/11 05:28:42;;;;;;;24.70;11.25;;;;;;;9.90;100.00;99865.97;5246684;28;20027;-74
2024/03/11 05:31:13;;;;;;;26.33;12.65;;;;;;;9.89;100.00;99871.47;5251337;28;20069;-75
2024/03/11 05:33:45;;;;;;;26.92;11.90;;;;;;;9.91;100.00;99878.31;5249281;28;20021;-75
2024/03/11 05:36:16;;;;;;;25.48;12.35;;;;;;;9.86;100.00;99880.72;5254320;28;20023;-75
2024/03/11 05:38:46;;;;;;;24.63;11.85;;;;;;;9.89;100.00;99882.19;5245854;28;20439;-74
2024/03/11 05:41:17;;;;;;;29.23;13.25;;;;;;;9.88;100.00;99889.41;5254526;28;20024;-75
2024/03/11 05:43:47;;;;;;;34.17;16.85;;;;;;;9.89;100.00;99892.91;5247417;28;20019;-75
2024/03/11 05:46:18;;;;;;;75.60;38.17;;;;;;;9.89;100.00;99891.09;5254040;28;20016;-75
2024/03/11 05:48:49;;;;;;;210.07;94.95;;;;;;;9.90;100.00;99895.44;5248262;28;20016;-75
2024/03/11 05:51:20;;;;;;;164.63;76.35;;;;;;;9.86;100.00;99894.97;5252009;28;20039;-75
2024/03/11 05:53:52;;;;;;;85.22;43.67;;;;;;;9.88;100.00;99900.13;5248305;28;20035;-75
2024/03/11 05:56:24;;;;;;;57.55;30.00;;;;;;;9.91;100.00;99893.56;5257863;28;20037;-75
2024/03/11 05:58:54;;;;;;;43.65;20.58;;;;;;;9.93;100.00;99903.06;5256423;28;20017;-75
2024/03/11 06:01:25;;;;;;;43.50;19.77;;;;;;;9.92;100.00;99904.09;5241221;28;20027;-75
2024/03/11 06:03:55;;;;;;;44.65;20.55;;;;;;;9.91;100.00;99905.13;5245312;28;20031;-75
2024/03/11 06:06:26;;;;;;;45.10;18.52;;;;;;;9.93;100.00;99907.59;5246596;28;20016;-75
2024/03/11 06:08:56;;;;;;;46.67;19.67;;;;;;;9.95;100.00;99917.13;5243539;28;20219;-75
2024/03/11 06:11:27;;;;;;;43.33;18.63;;;;;;;9.93;100.00;99921.81;5245188;28;20023;-74
2024/03/11 06:13:57;;;;;;;43.97;20.52;;;;;;;9.94;100.00;99919.97;5239729;28;20030;-75
2024/03/11 06:16:28;;;;;;;45.85;20.02;;;;;;;9.89;100.00;99917.88;5249458;28;20410;-75
2024/03/11 06:18:58;;;;;;;51.60;21.20;;;;;;;9.89;100.00;99925.91;5244464;28;20104;-75
2024/03/11 06:21:30;;;;;;;53.47;23.13;;;;;;;9.92;100.00;99933.56;5246590;28;20012;-75
2024/03/11 06:24:00;;;;;;;53.42;23.30;;;;;;;9.91;100.00;99934.59;5246396;28;20560;-74
2024/03/11 06:26:34;;;;;;;53.97;26.90;;;;;;;9.95;100.00;99940.41;5245050;28;20063;-75
2024/03/11 06:29:06;;;;;;;78.22;37.33;;;;;;;9.94;100.00;99939.59;5243415;28;20020;-76
2024/03/11 06:31:38;;;;;;;69.75;31.65;;;;;;;9.97;100.00;99936.53;5246459;28;20016;-75
2024/03/11 06:34:11;;;;;;;49.15;22.98;;;;;;;9.97;100.00;99941.06;5245520;28;20191;-75
2024/03/11 06:36:42;;;;;;;47.28;19.70;;;;;;;9.97;100.00;99947.25;5245341;28;20726;-75
2024/03/11 06:39:14;;;;;;;49.08;22.45;;;;;;;9.95;100.00;99937.75;5244715;28;20112;-74
2024/03/11 06:41:45;;;;;;;43.75;18.45;;;;;;;9.94;100.00;99947.63;5245949;28;20043;-75
2024/03/11 06:44:17;;;;;;;52.50;24.50;;;;;;;9.95;100.00;99933.22;5246235;28;20032;-75
2024/03/11 06:46:47;;;;;;;63.45;33.58;;;;;;;9.97;100.00;99951.78;5244990;28;20033;-75
2024/03/11 06:49:18;;;;;;;56.40;27.58;;;;;;;9.92;100.00;99943.47;5244119;28;20023;-75
2024/03/11 06:51:48;;;;;;;47.60;20.67;;;;;;;9.79;100.00;99954.81;5245026;28;20129;-75
2024/03/11 06:54:19;;;;;;;48.35;21.02;;;;;;;9.92;100.00;99949.66;5245189;28;20017;-74
2024/03/11 06:56:49;;;;;;;50.90;22.67;;;;;;;9.95;100.00;99951.13;5229354;28;20012;-75
2024/03/11 06:59:20;;;;;;;47.70;19.73;;;;;;;9.96;100.00;99950.94;5243550;28;20050;-75
2024/03/11 07:01:51;;;;;;;58.50;20.08;;;;;;;9.99;100.00;99960.44;5241873;28;20291;-75
2024/03/11 07:04:21;;;;;;;50.08;20.45;;;;;;;9.98;100.00;99958.78;5246496;28;20398;-75
2024/03/11 07:06:52;;;;;;;48.00;19.25;;;;;;;9.84;100.00;99965.81;5245591;28;20021;-74
2024/03/11 07:09:22;;;;;;;42.67;18.55;;;;;;;9.98;100.00;99967.66;5244546;28;20470;-75
2024/03/11 07:11:53;;;;;;;59.53;30.17;;;;;;;10.00;100.00;99967.50;5250781;28;20024;-75
2024/03/11 07:14:23;;;;;;;74.13;34.38;;;;;;;10.03;100.00;99972.47;5246100;28;20712;-75
2024/03/11 07:16:54;;;;;;;63.55;20.80;;;;;;;9.94;100.00;99982.47;5245223;28;20036;-76
2024/03/11 07:19:25;;;;;;;57.08;24.85;;;;;;;10.01;100.00;99983.38;5239495;28;20027;-75
2024/03/11 07:21:57;;;;;;;54.40;20.63;;;;;;;10.03;100.00;99977.81;5238309;28;20047;-76
2024/03/11 07:24:28;;;;;;;55.10;21.55;;;;;;;10.05;100.00;99975.81;5245233;28;20027;-76
2024/03/11 07:26:58;;;;;;;54.00;19.77;;;;;;;10.06;100.00;99975.63;5262058;28;20028;-74
2024/03/11 07:29:29;;;;;;;48.42;20.02;;;;;;;10.06;100.00;99975.63;5244415;28;20028;-75
2024/03/11 07:31:59;;;;;;;45.28;19.13;;;;;;;10.07;100.00;99990.69;5246347;28;20107;-76
2024/03/11 07:34:30;;;;;;;49.65;19.40;;;;;;;10.08;100.00;99975.44;5246580;28;20020;-75
2024/03/11 07:37:01;;;;;;;48.70;20.20;;;;;;;10.10;100.00;99979.59;5245238;28;20048;-76
2024/03/11 07:39:32;;;;;;;47.95;19.58;;;;;;;10.15;100.00;99981.72;5243085;28;20012;-76
2024/03/11 07:42:03;;;;;;;50.42;20.13;;;;;;;10.17;100.00;99986.91;5245209;28;20027;-75
2024/03/11 07:44:34;;;;;;;50.38;20.10;;;;;;;10.16;100.00;99987.91;5244703;28;20036;-75
2024/03/11 07:47:07;;;;;;;56.95;19.30;;;;;;;10.19;100.00;99987.53;5245607;28;20043;-76
2024/03/11 07:49:38;;;;;;;47.90;19.20;;;;;;;10.18;100.00;99996.59;5237995;28;20111;-75
2024/03/11 07:52:12;;;;;;;49.03;18.98;;;;;;;10.18;100.00;99996.59;5238152;28;20113;-74
2024/03/11 07:54:43;;;;;;;50.97;20.40;;;;;;;10.16;100.00;99995.97;5244648;28;20036;-76
2024/03/11 07:57:13;;;;;;;46.90;18.00;;;;;;;10.18;100.00;100010.81;5243884;28;20040;-76
2024/03/11 07:59:44;;;;;;;51.22;20.02;;;;;;;10.20;100.00;100011.50;5241618;28;20052;-75
2024/03/11 08:02:15;;;;;;;80.32;35.90;;;;;;;10.24;100.00;100011.97;5242739;28;20115;-76
2024/03/11 08:04:47;;;;;;;110.88;42.47;;;;;;;10.27;100.00;100006.25;5243141;28;20028;-75
2024/03/11 08:07:18;;;;;;;251.43;95.38;;;;;;;10.25;100.00;100009.13;5242183;28;20410;-75
2024/03/11 08:09:48;;;;;;;234.90;96.07;;;;;;;10.30;100.00;100000.53;5240254;28;20024;-75
2024/03/11 08:12:19;;;;;;;99.43;42.25;;;;;;;10.22;100.00;100001.41;5244319;28;20028;-75
2024/03/11 08:14:49;;;;;;;86.78;36.25;;;;;;;10.28;100.00;100014.09;5242745;28;20099;-75
2024/03/11 08:17:20;;;;;;;87.28;37.65;;;;;;;10.33;100.00;100021.59;5242229;28;20393;-76
2024/03/11 08:19:52;;;;;;;59.72;25.38;;;;;;;10.34;100.00;100023.25;5235466;28;20088;-76
2024/03/11 08:22:22;;;;;;;66.05;26.58;;;;;;;10.32;100.00;100033.34;5242606;28;20032;-75
2024/03/11 08:24:53;;;;;;;59.80;25.80;;;;;;;10.36;100.00;100032.78;5258407;28;20025;-76
2024/03/11 08:27:26;;;;;;;50.13;21.13;;;;;;;10.43;100.00;100032.03;5242304;28;20048;-76
2024/03/11 08:29:59;;;;;;;47.08;21.50;;;;;;;10.40;100.00;100027.06;5254850;28;20099;-75
2024/03/11 08:32:31;;;;;;;57.15;23.63;;;;;;;10.42;100.00;100025.03;5244719;28;20456;-77
2024/03/11 08:35:02;;;;;;;48.20;20.17;;;;;;;10.41;100.00;100029.56;5245155;28;20094;-76
2024/03/11 08:37:33;;;;;;;50.67;20.45;;;;;;;10.44;100.00;100025.66;5226816;28;20078;-76
2024/03/11 08:40:04;;;;;;;45.75;19.85;;;;;;;10.47;100.00;100025.28;5247787;28;20728;-76
2024/03/11 08:42:35;;;;;;;46.47;19.30;;;;;;;10.46;100.00;100027.16;5245227;28;20077;-76
2024/03/11 08:45:08;;;;;;;50.55;21.15;;;;;;;10.47;100.00;100038.72;5246744;28;20027;-76
2024/03/11 08:47:40;;;;;;;42.70;18.42;;;;;;;10.47;100.00;100036.84;5242791;28;20085;-76
2024/03/11 08:50:12;;;;;;;46.17;17.90;;;;;;;10.48;100.00;100041.19;5240237;28;20043;-76
2024/03/11 08:52:45;;;;;;;42.58;17.05;;;;;;;10.44;100.00;100042.59;5249572;28;20021;-76
2024/03/11 08:55:16;;;;;;;40.85;16.88;;;;;;;10.45;100.00;100043.44;5244692;28;20024;-76
2024/03/11 08:57:47;;;;;;;43.13;16.85;;;;;;;10.47;100.00;100044.91;5245802;28;20039;-75
2024/03/11 09:00:18;;;;;;;38.38;16.77;;;;;;;10.47;100.00;100054.78;5237605;28;20027;-75
2024/03/11 09:02:48;;;;;;;43.55;16.40;;;;;;;10.45;100.00;100057.66;5241279;28;20028;-74
2024/03/11 09:05:19;;;;;;;57.92;26.73;;;;;;;10.40;100.00;100048.53;5238526;28;20523;-74
2024/03/11 09:07:51;;;;;;;46.28;20.63;;;;;;;10.43;100.00;100056.19;5245275;28;20024;-74
2024/03/11 09:10:22;;;;;;;47.83;24.42;;;;;;;10.44;100.00;100056.00;5243840;28;20023;-74
2024/03/11 09:12:54;;;;;;;46.78;17.77;;;;;;;10.43;100.00;100057.00;5239627;28;20071;-75
2024/03/11 09:15:24;;;;;;;39.60;16.98;;;;;;;10.43;100.00;100065.03;5242697;28;20047;-75
2024/03/11 09:17:55;;;;;;;38.72;16.45;;;;;;;10.42;100.00;100066.06;5243289;28;20124;-75
2024/03/11 09:20:27;;;;;;;36.42;16.42;;;;;;;10.43;100.00;100070.41;5240956;28;20095;-75
2024/03/11 09:22:58;;;;;;;34.65;15.07;;;;;;;10.41;100.00;100067.09;5244317;28;20528;-74
2024/03/11 09:25:30;;;;;;;34.65;15.27;;;;;;;10.46;100.00;100078.09;5241512;28;20016;-74
2024/03/11 09:28:01;;;;;;;36.80;16.15;;;;;;;10.39;100.00;100079.84;5244467;28;20039;-75
2024/03/11 09:30:33;;;;;;;36.78;16.90;;;;;;;10.46;100.00;100079.94;5237782;28;20016;-75
2024/03/11 09:33:04;;;;;;;37.00;16.73;;;;;;;10.49;100.00;100074.19;5242915;28;20029;-75
2024/03/11 09:35:36;;;;;;;38.42;16.40;;;;;;;10.48;100.00;100068.00;5249114;28;20027;-74
2024/03/11 09:38:06;;;;;;;45.20;18.80;;;;;;;10.48;100.00;100072.53;5242756;28;20089;-75
2024/03/11 09:40:37;;;;;;;57.15;22.80;;;;;;;10.49;100.00;100083.09;5247820;28;20028;-75
2024/03/11 09:43:11;;;;;;;85.97;35.53;;;;;;;10.48;100.00;100092.16;5243834;28;20024;-75
2024/03/11 09:45:43;;;;;;;53.83;24.17;;;;;;;10.51;100.00;100094.47;5246649;28;20025;-75
2024/03/11 09:48:14;;;;;;;72.85;33.17;;;;;;;10.52;100.00;100090.75;5247705;28;20048;-75
2024/03/11 09:50:46;;;;;;;46.22;19.90;;;;;;;10.50;100.00;100094.66;5244634;28;20710;-75
2024/03/11 09:53:23;;;;;;;48.47;23.70;;;;;;;10.54;100.00;100095.94;5246598;28;20023;-75
2024/03/11 09:55:54;;;;;;;57.65;29.35;;;;;;;10.51;100.00;100097.16;5241190;28;20024;-75
2024/03/11 09:58:26;;;;;;;124.32;83.13;;;;;;;10.53;100.00;100105.00;5248031;28;20359;-75
2024/03/11 10:00:57;;;;;;;54.40;29.48;;;;;;;10.59;100.00;100112.31;5246045;28;20029;-75
2024/03/11 10:03:28;;;;;;;47.70;22.90;;;;;;;10.59;100.00;100115.00;5246273;28;20028;-75
2024/03/11 10:06:07;;;;;;;43.58;18.25;;;;;;;10.61;100.00;100111.13;5245606;28;20079;-75
2024/03/11 10:08:39;;;;;;;38.58;16.05;;;;;;;10.61;100.00;100113.81;5238791;28;20400;-74
2024/03/11 10:11:12;;;;;;;38.20;16.75;;;;;;;10.60;100.00;100114.00;5265728;28;20036;-75
2024/03/11 10:13:42;;;;;;;44.05;21.05;;;;;;;10.60;100.00;100116.69;5235985;28;20021;-75
2024/03/11 10:16:17;;;;;;;33.08;14.93;;;;;;;10.58;100.00;100122.22;5248837;28;20043;-75
2024/03/11 10:19:02;;;;;;;39.78;16.50;;;;;;;10.60;100.00;100122.88;5244601;28;20012;-74
2024/03/11 10:21:34;;;;;;;36.42;15.32;;;;;;;10.57;100.00;100130.44;5244514;28;20032;-75
2024/03/11 10:24:05;;;;;;;36.35;15.50;;;;;;;10.58;100.00;100124.06;5247692;28;20082;-75
2024/03/11 10:26:41;;;;;;;40.20;15.73;;;;;;;10.61;100.00;100131.75;5250011;28;20035;-74
2024/03/11 10:29:12;;;;;;;39.25;16.42;;;;;;;10.61;100.00;100134.44;5248084;28;20050;-75
2024/03/11 10:31:45;;;;;;;35.85;15.10;;;;;;;10.65;100.00;100142.94;5242095;28;20016;-75
2024/03/11 10:34:20;;;;;;;153.73;75.35;;;;;;;10.65;100.00;100137.59;5251687;28;20035;-75
2024/03/11 10:36:59;;;;;;;71.45;31.85;;;;;;;10.70;100.00;100140.56;5244269;28;20634;-75
2024/03/11 10:39:40;;;;;;;69.10;30.63;;;;;;;10.75;100.00;100143.50;5244151;28;20024;-74
2024/03/11 10:42:15;;;;;;;40.00;17.08;;;;;;;10.79;100.00;100150.16;5251612;28;20076;-74
2024/03/11 10:44:45;;;;;;;55.33;29.33;;;;;;;10.85;100.00;100149.44;5248669;28;20023;-75
2024/03/11 10:47:18;;;;;;;60.00;31.95;;;;;;;10.87;100.00;100147.38;5251129;28;20051;-75
2024/03/11 10:49:51;;;;;;;49.95;25.48;;;;;;;10.91;100.00;100148.69;5245503;28;20046;-75
2024/03/11 10:52:25;;;;;;;40.63;17.90;;;;;;;10.89;100.00;100151.56;5246484;28;20031;-75
2024/03/11 10:54:58;;;;;;;36.28;16.77;;;;;;;10.92;100.00;100155.72;5241899;28;20025;-75
2024/03/11 10:57:39;;;;;;;36.30;16.58;;;;;;;10.92;100.00;100157.56;5250147;28;20046;-75
2024/03/11 11:02:55;;;;;;;40.85;17.15;;;;;;;10.82;100.00;100165.91;5246021;28;20111;-73
2024/03/11 11:05:32;;;;;;;40.60;16.98;;;;;;;10.83;100.00;100159.50;5247542;28;20055;-75
2024/03/11 11:08:03;;;;;;;40.75;18.52;;;;;;;10.85;100.00;100171.72;5250085;28;20389;-75
2024/03/11 11:10:38;;;;;;;36.50;15.30;;;;;;;10.80;100.00;100162.56;5243473;28;20031;-75
2024/03/11 11:13:11;;;;;;;39.22;15.77;;;;;;;10.79;100.00;100161.75;5259711;28;20485;-75
2024/03/11 11:15:45;;;;;;;39.92;16.65;;;;;;;10.76;100.00;100158.59;5247403;28;20103;-75
2024/03/11 11:18:17;;;;;;;51.83;18.02;;;;;;;10.69;100.00;100161.16;5252771;28;20024;-75
2024/03/11 11:20:49;;;;;;;46.55;21.85;;;;;;;10.71;100.00;100159.13;5242792;28;20074;-75
2024/03/11 11:23:24;;;;;;;66.78;30.38;;;;;;;10.75;100.00;100167.66;5241456;28;20028;-75
2024/03/11 11:25:56;;;;;;;;;;;;;;;10.77;100.00;100168.28;5239470;28;20050;-75
2024/03/11 11:28:28;;;;;;;67.57;29.35;;;;;;;10.81;100.00;100169.59;5246419;28;20005;-75